sensor_id;sensor_type;location;lat;lon;timestamp;P1;durP1;ratioP1;P2;durP2;ratioP2
51692;SDS011;37777;53.066;21.638;2022-10-31T00:05:18;25.02;;;13.50;;
51692;SDS011;37777;53.066;21.638;2022-10-31T00:12:20;27.38;;;14.52;;
51692;SDS011;37777;53.066;21.638;2022-10-31T00:19:21;26.70;;;13.68;;
51692;SDS011;37777;53.066;21.638;2022-10-31T00:26:23;26.20;;;13.52;;
51692;SDS011;37777;53.066;21.638;2022-10-31T00:33:25;28.75;;;14.02;;
51692;SDS011;37777;53.066;21.638;2022-10-31T00:40:27;29.98;;;13.63;;
51692;SDS011;37777;53.066;21.638;2022-10-31T00:47:29;22.38;;;12.68;;
51692;SDS011;37777;53.066;21.638;2022-10-31T00:54:31;20.08;;;12.32;;
51692;SDS011;37777;53.066;21.638;2022-10-31T01:01:32;29.60;;;13.40;;
51692;SDS011;37777;53.066;21.638;2022-10-31T01:08:35;23.17;;;12.38;;
51692;SDS011;37777;53.066;21.638;2022-10-31T01:15:37;25.65;;;12.00;;
51692;SDS011;37777;53.066;21.638;2022-10-31T01:22:39;25.67;;;11.50;;
51692;SDS011;37777;53.066;21.638;2022-10-31T01:29:41;21.45;;;11.60;;
51692;SDS011;37777;53.066;21.638;2022-10-31T01:36:43;30.55;;;13.32;;
51692;SDS011;37777;53.066;21.638;2022-10-31T01:43:52;19.13;;;10.90;;
51692;SDS011;37777;53.066;21.638;2022-10-31T01:50:54;17.90;;;10.55;;
51692;SDS011;37777;53.066;21.638;2022-10-31T01:58:02;21.48;;;10.57;;
51692;SDS011;37777;53.066;21.638;2022-10-31T02:05:07;22.08;;;10.90;;
51692;SDS011;37777;53.066;21.638;2022-10-31T02:12:09;20.52;;;10.68;;
51692;SDS011;37777;53.066;21.638;2022-10-31T02:19:12;19.08;;;9.88;;
51692;SDS011;37777;53.066;21.638;2022-10-31T02:33:52;11.50;;;6.72;;
51692;SDS011;37777;53.066;21.638;2022-10-31T02:48:09;12.13;;;6.18;;
51692;SDS011;37777;53.066;21.638;2022-10-31T03:02:32;12.75;;;7.63;;
51692;SDS011;37777;53.066;21.638;2022-10-31T03:16:49;11.32;;;7.30;;
51692;SDS011;37777;53.066;21.638;2022-10-31T03:23:51;13.43;;;7.97;;
51692;SDS011;37777;53.066;21.638;2022-10-31T03:30:55;16.58;;;8.60;;
51692;SDS011;37777;53.066;21.638;2022-10-31T03:37:59;13.88;;;7.45;;
51692;SDS011;37777;53.066;21.638;2022-10-31T03:45:15;14.95;;;8.48;;
51692;SDS011;37777;53.066;21.638;2022-10-31T03:59:29;19.38;;;8.93;;
51692;SDS011;37777;53.066;21.638;2022-10-31T04:06:33;18.10;;;9.00;;
51692;SDS011;37777;53.066;21.638;2022-10-31T04:13:36;17.77;;;9.10;;
51692;SDS011;37777;53.066;21.638;2022-10-31T04:20:40;14.10;;;8.70;;
51692;SDS011;37777;53.066;21.638;2022-10-31T04:27:42;20.25;;;9.10;;
51692;SDS011;37777;53.066;21.638;2022-10-31T04:34:44;15.80;;;9.00;;
51692;SDS011;37777;53.066;21.638;2022-10-31T04:41:46;16.42;;;9.13;;
51692;SDS011;37777;53.066;21.638;2022-10-31T04:48:48;14.50;;;8.23;;
51692;SDS011;37777;53.066;21.638;2022-10-31T04:55:49;15.82;;;8.52;;
51692;SDS011;37777;53.066;21.638;2022-10-31T05:02:52;13.30;;;8.02;;
51692;SDS011;37777;53.066;21.638;2022-10-31T05:09:54;13.18;;;8.38;;
51692;SDS011;37777;53.066;21.638;2022-10-31T05:16:56;15.25;;;8.20;;
51692;SDS011;37777;53.066;21.638;2022-10-31T05:23:58;17.70;;;8.75;;
51692;SDS011;37777;53.066;21.638;2022-10-31T05:30:59;12.63;;;7.88;;
51692;SDS011;37777;53.066;21.638;2022-10-31T05:38:01;14.55;;;8.48;;
51692;SDS011;37777;53.066;21.638;2022-10-31T05:45:03;14.82;;;8.73;;
51692;SDS011;37777;53.066;21.638;2022-10-31T05:52:05;12.40;;;8.02;;
51692;SDS011;37777;53.066;21.638;2022-10-31T05:59:07;14.18;;;8.30;;
51692;SDS011;37777;53.066;21.638;2022-10-31T06:06:08;13.85;;;7.78;;
51692;SDS011;37777;53.066;21.638;2022-10-31T06:13:10;12.35;;;7.28;;
51692;SDS011;37777;53.066;21.638;2022-10-31T06:20:12;11.07;;;7.30;;
51692;SDS011;37777;53.066;21.638;2022-10-31T06:27:14;11.38;;;6.95;;
51692;SDS011;37777;53.066;21.638;2022-10-31T06:34:16;12.80;;;6.50;;
51692;SDS011;37777;53.066;21.638;2022-10-31T06:41:17;13.57;;;6.60;;
51692;SDS011;37777;53.066;21.638;2022-10-31T06:48:19;16.50;;;6.47;;
51692;SDS011;37777;53.066;21.638;2022-10-31T06:55:22;12.88;;;7.25;;
51692;SDS011;37777;53.066;21.638;2022-10-31T07:02:24;11.25;;;6.43;;
51692;SDS011;37777;53.066;21.638;2022-10-31T07:09:26;14.32;;;7.25;;
51692;SDS011;37777;53.066;21.638;2022-10-31T07:16:28;15.73;;;6.75;;
51692;SDS011;37777;53.066;21.638;2022-10-31T07:23:30;14.30;;;6.93;;
51692;SDS011;37777;53.066;21.638;2022-10-31T07:30:33;16.42;;;6.72;;
51692;SDS011;37777;53.066;21.638;2022-10-31T07:37:35;12.93;;;6.63;;
51692;SDS011;37777;53.066;21.638;2022-10-31T07:44:37;13.20;;;7.05;;
51692;SDS011;37777;53.066;21.638;2022-10-31T07:51:39;16.92;;;7.38;;
51692;SDS011;37777;53.066;21.638;2022-10-31T07:58:46;15.90;;;7.50;;
51692;SDS011;37777;53.066;21.638;2022-10-31T08:05:48;15.50;;;7.53;;
51692;SDS011;37777;53.066;21.638;2022-10-31T08:13:10;17.65;;;7.15;;
51692;SDS011;37777;53.066;21.638;2022-10-31T08:20:12;16.55;;;7.00;;
51692;SDS011;37777;53.066;21.638;2022-10-31T08:27:14;16.83;;;7.90;;
51692;SDS011;37777;53.066;21.638;2022-10-31T08:34:15;16.73;;;7.80;;
51692;SDS011;37777;53.066;21.638;2022-10-31T08:41:17;22.20;;;9.20;;
51692;SDS011;37777;53.066;21.638;2022-10-31T08:48:19;15.77;;;8.13;;
51692;SDS011;37777;53.066;21.638;2022-10-31T08:55:21;14.90;;;8.20;;
51692;SDS011;37777;53.066;21.638;2022-10-31T09:02:22;20.98;;;7.60;;
51692;SDS011;37777;53.066;21.638;2022-10-31T09:09:24;19.23;;;8.10;;
51692;SDS011;37777;53.066;21.638;2022-10-31T09:16:26;22.75;;;9.20;;
51692;SDS011;37777;53.066;21.638;2022-10-31T09:23:28;20.92;;;9.88;;
51692;SDS011;37777;53.066;21.638;2022-10-31T09:30:31;22.35;;;10.13;;
51692;SDS011;37777;53.066;21.638;2022-10-31T09:37:33;25.05;;;10.73;;
51692;SDS011;37777;53.066;21.638;2022-10-31T09:44:58;28.52;;;12.27;;
51692;SDS011;37777;53.066;21.638;2022-10-31T09:52:05;33.75;;;11.20;;
51692;SDS011;37777;53.066;21.638;2022-10-31T09:59:30;21.05;;;9.70;;
51692;SDS011;37777;53.066;21.638;2022-10-31T10:06:32;27.50;;;11.50;;
51692;SDS011;37777;53.066;21.638;2022-10-31T10:21:02;32.53;;;14.10;;
51692;SDS011;37777;53.066;21.638;2022-10-31T10:28:12;28.90;;;9.70;;
51692;SDS011;37777;53.066;21.638;2022-10-31T10:35:19;23.55;;;10.75;;
51692;SDS011;37777;53.066;21.638;2022-10-31T10:42:21;23.55;;;11.45;;
51692;SDS011;37777;53.066;21.638;2022-10-31T10:49:50;23.30;;;10.82;;
51692;SDS011;37777;53.066;21.638;2022-10-31T11:03:55;29.35;;;12.57;;
51692;SDS011;37777;53.066;21.638;2022-10-31T11:18:19;26.48;;;12.45;;
51692;SDS011;37777;53.066;21.638;2022-10-31T11:25:23;30.17;;;13.00;;
51692;SDS011;37777;53.066;21.638;2022-10-31T11:32:26;19.42;;;10.00;;
51692;SDS011;37777;53.066;21.638;2022-10-31T11:39:28;24.02;;;11.23;;
51692;SDS011;37777;53.066;21.638;2022-10-31T11:46:38;23.70;;;10.50;;
51692;SDS011;37777;53.066;21.638;2022-10-31T11:53:47;21.58;;;10.40;;
51692;SDS011;37777;53.066;21.638;2022-10-31T12:00:56;21.80;;;10.25;;
51692;SDS011;37777;53.066;21.638;2022-10-31T12:07:58;20.83;;;10.60;;
51692;SDS011;37777;53.066;21.638;2022-10-31T12:43:46;24.27;;;13.77;;
51692;SDS011;37777;53.066;21.638;2022-10-31T12:50:57;32.03;;;14.70;;
51692;SDS011;37777;53.066;21.638;2022-10-31T12:58:03;24.48;;;14.02;;
51692;SDS011;37777;53.066;21.638;2022-10-31T13:05:13;41.70;;;17.50;;
51692;SDS011;37777;53.066;21.638;2022-10-31T13:12:19;77.75;;;26.65;;
51692;SDS011;37777;53.066;21.638;2022-10-31T13:19:23;26.77;;;13.75;;
51692;SDS011;37777;53.066;21.638;2022-10-31T13:47:31;21.67;;;9.13;;
51692;SDS011;37777;53.066;21.638;2022-10-31T13:54:37;17.63;;;9.48;;
51692;SDS011;37777;53.066;21.638;2022-10-31T14:01:45;15.55;;;8.77;;
51692;SDS011;37777;53.066;21.638;2022-10-31T14:08:49;23.23;;;9.73;;
51692;SDS011;37777;53.066;21.638;2022-10-31T14:15:53;16.85;;;8.93;;
51692;SDS011;37777;53.066;21.638;2022-10-31T14:22:56;17.45;;;9.10;;
51692;SDS011;37777;53.066;21.638;2022-10-31T14:30:07;23.27;;;11.48;;
51692;SDS011;37777;53.066;21.638;2022-10-31T14:51:20;21.50;;;10.35;;
51692;SDS011;37777;53.066;21.638;2022-10-31T14:58:23;16.98;;;9.98;;
51692;SDS011;37777;53.066;21.638;2022-10-31T15:05:26;23.92;;;11.98;;
51692;SDS011;37777;53.066;21.638;2022-10-31T15:12:30;26.42;;;11.98;;
51692;SDS011;37777;53.066;21.638;2022-10-31T15:19:42;28.30;;;13.40;;
51692;SDS011;37777;53.066;21.638;2022-10-31T15:26:48;28.55;;;13.43;;
51692;SDS011;37777;53.066;21.638;2022-10-31T15:33:51;26.77;;;12.00;;
51692;SDS011;37777;53.066;21.638;2022-10-31T15:40:56;20.40;;;12.15;;
51692;SDS011;37777;53.066;21.638;2022-10-31T15:48:00;20.77;;;11.88;;
51692;SDS011;37777;53.066;21.638;2022-10-31T16:02:21;23.23;;;11.65;;
51692;SDS011;37777;53.066;21.638;2022-10-31T16:09:24;19.70;;;10.93;;
51692;SDS011;37777;53.066;21.638;2022-10-31T16:16:26;29.80;;;14.50;;
51692;SDS011;37777;53.066;21.638;2022-10-31T16:23:36;28.45;;;15.05;;
51692;SDS011;37777;53.066;21.638;2022-10-31T16:30:45;26.13;;;14.20;;
51692;SDS011;37777;53.066;21.638;2022-10-31T16:37:49;31.23;;;12.70;;
51692;SDS011;37777;53.066;21.638;2022-10-31T16:44:50;22.90;;;12.13;;
51692;SDS011;37777;53.066;21.638;2022-10-31T16:51:52;30.35;;;13.88;;
51692;SDS011;37777;53.066;21.638;2022-10-31T16:58:54;25.20;;;14.80;;
51692;SDS011;37777;53.066;21.638;2022-10-31T17:05:56;30.55;;;15.13;;
51692;SDS011;37777;53.066;21.638;2022-10-31T17:12:58;24.50;;;14.27;;
51692;SDS011;37777;53.066;21.638;2022-10-31T17:20:00;36.70;;;17.30;;
51692;SDS011;37777;53.066;21.638;2022-10-31T17:27:02;31.58;;;14.57;;
51692;SDS011;37777;53.066;21.638;2022-10-31T17:34:04;22.83;;;13.00;;
51692;SDS011;37777;53.066;21.638;2022-10-31T17:41:09;26.35;;;12.93;;
51692;SDS011;37777;53.066;21.638;2022-10-31T17:48:12;34.80;;;18.25;;
51692;SDS011;37777;53.066;21.638;2022-10-31T17:55:17;26.52;;;11.85;;
51692;SDS011;37777;53.066;21.638;2022-10-31T18:02:24;25.50;;;12.68;;
51692;SDS011;37777;53.066;21.638;2022-10-31T18:09:27;21.42;;;12.38;;
51692;SDS011;37777;53.066;21.638;2022-10-31T18:16:31;23.83;;;11.70;;
51692;SDS011;37777;53.066;21.638;2022-10-31T18:23:35;17.83;;;11.07;;
51692;SDS011;37777;53.066;21.638;2022-10-31T18:30:40;22.60;;;12.10;;
51692;SDS011;37777;53.066;21.638;2022-10-31T18:37:45;27.00;;;14.25;;
51692;SDS011;37777;53.066;21.638;2022-10-31T18:44:48;19.58;;;12.90;;
51692;SDS011;37777;53.066;21.638;2022-10-31T18:51:55;22.33;;;11.90;;
51692;SDS011;37777;53.066;21.638;2022-10-31T18:59:01;23.23;;;12.63;;
51692;SDS011;37777;53.066;21.638;2022-10-31T19:06:07;24.95;;;13.15;;
51692;SDS011;37777;53.066;21.638;2022-10-31T19:13:12;27.25;;;13.32;;
51692;SDS011;37777;53.066;21.638;2022-10-31T19:20:19;24.75;;;12.70;;
51692;SDS011;37777;53.066;21.638;2022-10-31T19:27:24;24.25;;;12.82;;
51692;SDS011;37777;53.066;21.638;2022-10-31T19:34:32;27.05;;;13.82;;
51692;SDS011;37777;53.066;21.638;2022-10-31T19:41:36;28.13;;;14.10;;
51692;SDS011;37777;53.066;21.638;2022-10-31T19:48:43;27.20;;;13.98;;
51692;SDS011;37777;53.066;21.638;2022-10-31T19:55:49;32.50;;;15.75;;
51692;SDS011;37777;53.066;21.638;2022-10-31T20:02:54;37.00;;;15.82;;
51692;SDS011;37777;53.066;21.638;2022-10-31T20:09:58;36.17;;;16.15;;
51692;SDS011;37777;53.066;21.638;2022-10-31T20:17:00;34.63;;;16.17;;
51692;SDS011;37777;53.066;21.638;2022-10-31T20:24:03;44.55;;;16.33;;
51692;SDS011;37777;53.066;21.638;2022-10-31T20:31:09;41.83;;;15.85;;
51692;SDS011;37777;53.066;21.638;2022-10-31T20:38:12;37.05;;;16.80;;
51692;SDS011;37777;53.066;21.638;2022-10-31T20:45:15;43.38;;;18.17;;
51692;SDS011;37777;53.066;21.638;2022-10-31T20:52:17;45.67;;;18.23;;
51692;SDS011;37777;53.066;21.638;2022-10-31T20:59:21;32.03;;;16.17;;
51692;SDS011;37777;53.066;21.638;2022-10-31T21:06:24;35.50;;;14.50;;
51692;SDS011;37777;53.066;21.638;2022-10-31T21:13:28;31.98;;;14.60;;
51692;SDS011;37777;53.066;21.638;2022-10-31T21:20:30;33.10;;;14.63;;
51692;SDS011;37777;53.066;21.638;2022-10-31T21:27:32;39.28;;;16.58;;
51692;SDS011;37777;53.066;21.638;2022-10-31T21:34:34;33.42;;;14.82;;
51692;SDS011;37777;53.066;21.638;2022-10-31T21:41:36;39.63;;;14.18;;
51692;SDS011;37777;53.066;21.638;2022-10-31T21:48:39;30.58;;;14.98;;
51692;SDS011;37777;53.066;21.638;2022-10-31T21:55:42;29.83;;;14.48;;
51692;SDS011;37777;53.066;21.638;2022-10-31T22:02:44;27.17;;;13.57;;
51692;SDS011;37777;53.066;21.638;2022-10-31T22:09:46;32.80;;;13.10;;
51692;SDS011;37777;53.066;21.638;2022-10-31T22:16:49;36.97;;;14.38;;
51692;SDS011;37777;53.066;21.638;2022-10-31T22:23:52;34.13;;;14.52;;
51692;SDS011;37777;53.066;21.638;2022-10-31T22:30:54;39.10;;;15.32;;
51692;SDS011;37777;53.066;21.638;2022-10-31T22:37:56;31.75;;;14.68;;
51692;SDS011;37777;53.066;21.638;2022-10-31T22:44:58;43.08;;;14.57;;
51692;SDS011;37777;53.066;21.638;2022-10-31T22:52:02;39.35;;;16.75;;
51692;SDS011;37777;53.066;21.638;2022-10-31T22:59:04;33.30;;;16.05;;
51692;SDS011;37777;53.066;21.638;2022-10-31T23:06:06;35.10;;;14.48;;
51692;SDS011;37777;53.066;21.638;2022-10-31T23:13:08;33.75;;;14.38;;
51692;SDS011;37777;53.066;21.638;2022-10-31T23:20:28;34.97;;;14.23;;
51692;SDS011;37777;53.066;21.638;2022-10-31T23:27:30;30.02;;;14.63;;
51692;SDS011;37777;53.066;21.638;2022-10-31T23:34:32;32.85;;;15.65;;
51692;SDS011;37777;53.066;21.638;2022-10-31T23:41:33;36.92;;;14.95;;
51692;SDS011;37777;53.066;21.638;2022-10-31T23:48:35;29.67;;;14.75;;
51692;SDS011;37777;53.066;21.638;2022-10-31T23:55:37;36.53;;;15.32;;
